Time;durP1;ratioP1;P1;durP2;ratioP2;P2;SDS_P1;SDS_P2;PMS_P1;PMS_P2;Temp;Humidity;BMP_temperature;BMP_pressure;BME280_temperature;BME280_humidity;BME280_pressure;Samples;Min_cycle;Max_cycle;Signal;HPM_P1;HPM_P2
2023/02/05 00:01:22;;;;;;;4.20;1.70;;;;;;;;;;5100752;28;20356;-65
2023/02/05 00:03:49;;;;;;;1.40;0.70;;;;;;;;;;5085297;28;20077;-65
2023/02/05 00:06:16;;;;;;;3.23;0.97;;;;;;;;;;5103548;28;20032;-66
2023/02/05 00:08:42;;;;;;;1.50;1.00;;;;;;;;;;5112539;28;20039;-65
2023/02/05 00:11:09;;;;;;;2.20;0.97;;;;;;;;;;5112538;28;20012;-63
2023/02/05 00:13:36;;;;;;;1.10;0.70;;;;;;;;;;5091829;28;20471;-62
2023/02/05 00:16:16;;;;;;;0.47;0.30;;;;;;;;;;5090505;28;20020;-62
2023/02/05 00:18:43;;;;;;;0.90;0.60;;;;;;;;;;5106768;28;20088;-65
2023/02/05 00:21:10;;;;;;;0.93;0.67;;;;;;;;;;5088131;28;20421;-65
2023/02/05 00:23:37;;;;;;;0.80;0.40;;;;;;;;;;5070952;28;20020;-65
2023/02/05 00:26:05;;;;;;;3.43;1.40;;;;;;;;;;5067828;28;20107;-65
2023/02/05 00:28:32;;;;;;;2.87;1.00;;;;;;;;;;5071249;28;20475;-65
2023/02/05 00:30:59;;;;;;;2.10;0.40;;;;;;;;;;5084466;28;20020;-65
2023/02/05 00:33:25;;;;;;;29.27;15.53;;;;;;;;;;5091147;28;20024;-65
2023/02/05 00:35:52;;;;;;;11.70;7.53;;;;;;;;;;5086309;28;20015;-65
2023/02/05 00:38:19;;;;;;;11.97;6.73;;;;;;;;;;5097491;28;20098;-65
2023/02/05 00:40:46;;;;;;;7.17;5.20;;;;;;;;;;5090032;28;20462;-65
2023/02/05 00:43:12;;;;;;;23.73;5.43;;;;;;;;;;5095954;28;20055;-65
2023/02/05 00:45:39;;;;;;;11.53;6.77;;;;;;;;;;5100260;28;20085;-65
2023/02/05 00:48:06;;;;;;;14.03;4.03;;;;;;;;;;5097887;28;20020;-64
2023/02/05 00:50:33;;;;;;;5.63;1.77;;;;;;;;;;5096583;28;20024;-65
2023/02/05 00:53:00;;;;;;;14.53;1.70;;;;;;;;;;5095538;28;20032;-64
2023/02/05 00:55:27;;;;;;;1.90;1.07;;;;;;;;;;5103090;28;20023;-65
2023/02/05 00:57:55;;;;;;;8.63;1.63;;;;;;;;;;5100556;28;20115;-65
2023/02/05 01:00:22;;;;;;;2.93;0.73;;;;;;;;;;5093286;28;20089;-65
2023/02/05 01:02:51;;;;;;;1.17;0.80;;;;;;;;;;5056290;28;20029;-65
2023/02/05 01:05:20;;;;;;;2.50;1.30;;;;;;;;;;5081457;28;20035;-66
2023/02/05 01:07:49;;;;;;;5.03;2.20;;;;;;;;;;5084302;28;20066;-65
2023/02/05 01:10:16;;;;;;;7.03;1.20;;;;;;;;;;5090040;28;20360;-64
2023/02/05 01:12:42;;;;;;;0.60;0.60;;;;;;;;;;5085371;28;20084;-65
2023/02/05 01:15:12;;;;;;;14.77;2.70;;;;;;;;;;5094801;28;20105;-65
2023/02/05 01:17:38;;;;;;;4.27;1.00;;;;;;;;;;5091844;28;20033;-66
2023/02/05 01:20:05;;;;;;;7.03;1.60;;;;;;;;;;5092169;28;20450;-66
2023/02/05 01:22:32;;;;;;;4.03;1.87;;;;;;;;;;5087856;28;20387;-65
2023/02/05 01:24:59;;;;;;;3.10;1.17;;;;;;;;;;5089745;28;20020;-65
2023/02/05 01:27:25;;;;;;;27.23;2.27;;;;;;;;;;5089039;28;20378;-65
2023/02/05 01:29:52;;;;;;;2.60;1.23;;;;;;;;;;5089034;28;20482;-65
2023/02/05 01:32:19;;;;;;;2.10;1.23;;;;;;;;;;5089939;28;20019;-64
2023/02/05 01:34:46;;;;;;;1.90;1.00;;;;;;;;;;5094421;28;20475;-65
2023/02/05 01:37:13;;;;;;;5.50;2.93;;;;;;;;;;5094702;28;20472;-65
2023/02/05 01:39:39;;;;;;;4.03;1.70;;;;;;;;;;5076057;28;20036;-64
2023/02/05 01:42:20;;;;;;;7.13;2.13;;;;;;;;;;5094549;28;20028;-65
2023/02/05 01:45:05;;;;;;;6.47;1.93;;;;;;;;;;5095142;28;20470;-65
2023/02/05 01:47:32;;;;;;;20.23;2.28;;;;;;;;;;5068974;28;20025;-65
2023/02/05 01:49:59;;;;;;;12.00;2.83;;;;;;;;;;5085656;28;20462;-65
2023/02/05 01:52:26;;;;;;;4.50;2.53;;;;;;;;;;5089163;28;20486;-65
2023/02/05 01:54:53;;;;;;;13.17;2.63;;;;;;;;;;5098490;28;20099;-65
2023/02/05 01:57:24;;;;;;;4.80;2.00;;;;;;;;;;5106125;28;20360;-64
2023/02/05 01:59:51;;;;;;;3.53;2.03;;;;;;;;;;5092697;28;20016;-65
2023/02/05 02:02:17;;;;;;;3.30;2.07;;;;;;;;;;5093251;28;20036;-64
2023/02/05 02:04:47;;;;;;;13.33;2.40;;;;;;;;;;5094498;28;20141;-65
2023/02/05 02:07:16;;;;;;;4.50;1.97;;;;;;;;;;5111721;28;20027;-64
2023/02/05 02:09:44;;;;;;;32.93;3.77;;;;;;;;;;5104845;28;20063;-64
2023/02/05 02:12:11;;;;;;;8.97;2.70;;;;;;;;;;5088117;28;20089;-64
2023/02/05 02:14:39;;;;;;;5.63;2.43;;;;;;;;;;5088603;28;20024;-64
2023/02/05 02:17:06;;;;;;;5.77;2.27;;;;;;;;;;5089174;28;20028;-64
2023/02/05 02:19:43;;;;;;;27.77;2.03;;;;;;;;;;5093871;28;20491;-64
2023/02/05 02:22:35;;;;;;;9.30;2.20;;;;;;;;;;5093764;28;20563;-64
2023/02/05 02:25:05;;;;;;;9.23;4.40;;;;;;;;;;5113041;28;20027;-64
2023/02/05 02:27:39;;;;;;;5.10;2.70;;;;;;;;;;5106784;28;20016;-64
2023/02/05 02:30:24;;;;;;;7.15;2.28;;;;;;;;;;5103548;28;20462;-65
2023/02/05 02:32:54;;;;;;;4.35;2.40;;;;;;;;;;5092743;28;20411;-64
2023/02/05 02:35:27;;;;;;;6.03;2.47;;;;;;;;;;5090031;28;20306;-65
2023/02/05 02:37:54;;;;;;;5.43;3.07;;;;;;;;;;5104086;28;20050;-64
2023/02/05 02:40:24;;;;;;;5.57;2.17;;;;;;;;;;5111161;28;20054;-64
2023/02/05 02:42:51;;;;;;;6.17;1.93;;;;;;;;;;5113644;28;20023;-64
2023/02/05 02:45:21;;;;;;;2.10;1.30;;;;;;;;;;5113191;28;20020;-64
2023/02/05 02:47:50;;;;;;;5.90;1.77;;;;;;;;;;5113693;28;20015;-64
2023/02/05 02:50:21;;;;;;;14.37;2.43;;;;;;;;;;5098149;28;20383;-65
2023/02/05 02:52:49;;;;;;;1.90;1.40;;;;;;;;;;5084129;28;20031;-64
2023/02/05 02:55:17;;;;;;;2.33;1.20;;;;;;;;;;5088060;28;20387;-64
2023/02/05 02:57:46;;;;;;;1.93;1.10;;;;;;;;;;5090039;28;20449;-64
2023/02/05 03:00:16;;;;;;;8.47;3.17;;;;;;;;;;5088400;28;20032;-65
2023/02/05 03:02:43;;;;;;;4.73;1.70;;;;;;;;;;5097510;28;20042;-64
2023/02/05 03:05:12;;;;;;;9.07;2.17;;;;;;;;;;5091530;28;20059;-64
2023/02/05 03:07:42;;;;;;;3.20;2.33;;;;;;;;;;5093807;28;20470;-64
2023/02/05 03:10:27;;;;;;;14.50;3.10;;;;;;;;;;5104294;28;20407;-64
2023/02/05 03:12:55;;;;;;;18.25;1.30;;;;;;;;;;5102884;28;20027;-64
2023/02/05 03:15:22;;;;;;;9.43;3.27;;;;;;;;;;5088550;28;20063;-64
2023/02/05 03:17:50;;;;;;;0.97;0.83;;;;;;;;;;5087673;28;20036;-64
2023/02/05 03:20:22;;;;;;;20.63;3.60;;;;;;;;;;5087878;28;20028;-64
2023/02/05 03:22:49;;;;;;;32.80;3.47;;;;;;;;;;5087723;28;20078;-64
2023/02/05 03:25:17;;;;;;;10.87;2.07;;;;;;;;;;5090830;28;20383;-64
2023/02/05 03:27:44;;;;;;;4.00;2.07;;;;;;;;;;5092726;28;20418;-64
2023/02/05 03:30:11;;;;;;;8.73;2.80;;;;;;;;;;5092394;28;20028;-64
2023/02/05 03:33:00;;;;;;;4.67;2.23;;;;;;;;;;5092737;28;20020;-64
2023/02/05 03:35:40;;;;;;;3.53;1.93;;;;;;;;;;5092528;28;20031;-64
2023/02/05 03:38:19;;;;;;;5.80;1.40;;;;;;;;;;5087608;28;20138;-64
2023/02/05 03:40:49;;;;;;;6.77;2.03;;;;;;;;;;5087550;28;20026;-64
2023/02/05 03:43:34;;;;;;;2.47;1.73;;;;;;;;;;5087578;28;20020;-64
2023/02/05 03:46:07;;;;;;;5.50;2.03;;;;;;;;;;5087635;28;20379;-64
2023/02/05 03:48:36;;;;;;;19.87;2.37;;;;;;;;;;5093299;28;20020;-64
2023/02/05 03:51:12;;;;;;;2.73;1.33;;;;;;;;;;5093856;28;20027;-64
2023/02/05 03:53:41;;;;;;;2.03;1.40;;;;;;;;;;5091968;28;20052;-64
2023/02/05 03:56:19;;;;;;;3.63;1.67;;;;;;;;;;5091681;28;20111;-63
2023/02/05 03:58:48;;;;;;;3.13;2.03;;;;;;;;;;5090526;28;20028;-64
2023/02/05 04:01:14;;;;;;;4.13;1.67;;;;;;;;;;5087205;28;20103;-64
2023/02/05 04:03:41;;;;;;;7.17;2.37;;;;;;;;;;5087020;28;20031;-64
2023/02/05 04:06:08;;;;;;;2.93;1.60;;;;;;;;;;5086574;28;20036;-64
2023/02/05 04:08:37;;;;;;;2.97;1.13;;;;;;;;;;5087669;28;20032;-64
2023/02/05 04:11:03;;;;;;;2.00;1.10;;;;;;;;;;5092086;28;20034;-63
2023/02/05 04:13:30;;;;;;;6.63;2.20;;;;;;;;;;5091704;28;20020;-64
2023/02/05 04:15:57;;;;;;;4.83;1.27;;;;;;;;;;5101442;28;20020;-64
2023/02/05 04:18:24;;;;;;;2.57;1.73;;;;;;;;;;5087080;28;20462;-64
2023/02/05 04:20:51;;;;;;;2.97;1.93;;;;;;;;;;5095272;28;20066;-64
2023/02/05 04:23:17;;;;;;;1.63;1.17;;;;;;;;;;5087298;28;20024;-64
2023/02/05 04:25:44;;;;;;;2.70;1.40;;;;;;;;;;5087300;28;20125;-64
2023/02/05 04:28:11;;;;;;;1.93;1.13;;;;;;;;;;5089086;28;20405;-64
2023/02/05 04:30:39;;;;;;;2.73;1.63;;;;;;;;;;5089039;28;20032;-64
2023/02/05 04:33:05;;;;;;;4.47;2.40;;;;;;;;;;5094789;28;20028;-64
2023/02/05 04:35:32;;;;;;;2.83;1.67;;;;;;;;;;5095880;28;20028;-64
2023/02/05 04:37:59;;;;;;;1.67;1.17;;;;;;;;;;5113625;28;20035;-64
2023/02/05 04:40:26;;;;;;;3.70;1.80;;;;;;;;;;5099814;28;20036;-64
2023/02/05 04:42:52;;;;;;;3.20;1.83;;;;;;;;;;5092977;28;20120;-64
2023/02/05 04:45:19;;;;;;;8.23;3.43;;;;;;;;;;5089583;28;20028;-64
2023/02/05 04:47:46;;;;;;;7.63;3.73;;;;;;;;;;5090597;28;20066;-64
2023/02/05 04:50:13;;;;;;;8.13;3.40;;;;;;;;;;5101287;28;20035;-64
2023/02/05 04:52:39;;;;;;;4.17;2.20;;;;;;;;;;5094851;28;20028;-65
2023/02/05 04:55:06;;;;;;;15.93;3.77;;;;;;;;;;5107905;28;20094;-64
2023/02/05 04:57:33;;;;;;;5.63;2.70;;;;;;;;;;5095489;28;20119;-64
2023/02/05 05:00:00;;;;;;;5.33;2.37;;;;;;;;;;5083638;28;20027;-64
2023/02/05 05:02:26;;;;;;;3.40;2.13;;;;;;;;;;5077211;28;20409;-64
2023/02/05 05:04:53;;;;;;;4.13;2.23;;;;;;;;;;5114093;28;20102;-64
2023/02/05 05:07:20;;;;;;;2.47;1.63;;;;;;;;;;5089871;28;20030;-64
2023/02/05 05:09:46;;;;;;;2.67;1.77;;;;;;;;;;5093920;28;20036;-63
2023/02/05 05:12:13;;;;;;;4.03;2.27;;;;;;;;;;5105521;28;20027;-63
2023/02/05 05:14:40;;;;;;;6.17;2.57;;;;;;;;;;5109959;28;20047;-63
2023/02/05 05:17:06;;;;;;;6.57;1.60;;;;;;;;;;5114631;28;20028;-63
2023/02/05 05:19:33;;;;;;;8.20;2.63;;;;;;;;;;5115247;28;20027;-63
2023/02/05 05:22:00;;;;;;;3.13;1.77;;;;;;;;;;5115339;28;20028;-63
2023/02/05 05:24:26;;;;;;;2.07;1.33;;;;;;;;;;5106517;28;20024;-63
2023/02/05 05:26:53;;;;;;;16.67;3.40;;;;;;;;;;5100213;28;20028;-63
2023/02/05 05:29:20;;;;;;;4.23;2.23;;;;;;;;;;5089517;28;20039;-64
2023/02/05 05:31:46;;;;;;;3.50;1.37;;;;;;;;;;5089160;28;20052;-63
2023/02/05 05:34:13;;;;;;;1.80;1.13;;;;;;;;;;5089262;28;20417;-64
2023/02/05 05:36:42;;;;;;;2.27;1.10;;;;;;;;;;5089319;28;20103;-64
2023/02/05 05:44:39;;;;;;;2.00;1.20;;;;;;;;;;5094371;28;20039;-63
2023/02/05 05:47:06;;;;;;;0.93;0.73;;;;;;;;;;5094244;28;20667;-63
2023/02/05 05:49:32;;;;;;;1.13;0.90;;;;;;;;;;5093637;28;20055;-63
2023/02/05 05:51:59;;;;;;;1.77;1.37;;;;;;;;;;5089078;28;20056;-63
2023/02/05 05:54:26;;;;;;;3.27;2.23;;;;;;;;;;5089072;28;20108;-63
2023/02/05 05:56:52;;;;;;;1.63;1.10;;;;;;;;;;5088643;28;20036;-63
2023/02/05 05:59:19;;;;;;;5.20;2.10;;;;;;;;;;5103665;28;20076;-63
2023/02/05 06:01:46;;;;;;;2.90;1.97;;;;;;;;;;5114442;28;20032;-63
2023/02/05 06:04:13;;;;;;;7.83;1.60;;;;;;;;;;5114353;28;20034;-63
2023/02/05 06:06:40;;;;;;;1.93;1.13;;;;;;;;;;5114340;28;20470;-64
2023/02/05 06:09:07;;;;;;;1.57;1.00;;;;;;;;;;5114332;28;20370;-63
2023/02/05 06:11:34;;;;;;;3.53;1.30;;;;;;;;;;5113807;28;20020;-63
2023/02/05 06:14:00;;;;;;;2.23;1.40;;;;;;;;;;5108638;28;20023;-63
2023/02/05 06:16:27;;;;;;;2.63;1.23;;;;;;;;;;5108985;28;21160;-63
2023/02/05 06:18:55;;;;;;;6.07;1.13;;;;;;;;;;5108906;28;20027;-63
2023/02/05 06:21:21;;;;;;;1.37;1.00;;;;;;;;;;5108341;28;20024;-64
2023/02/05 06:23:48;;;;;;;2.17;1.60;;;;;;;;;;5105364;28;20470;-63
2023/02/05 06:26:15;;;;;;;3.37;1.60;;;;;;;;;;5114075;28;20028;-63
2023/02/05 06:28:41;;;;;;;3.10;1.53;;;;;;;;;;5114137;28;20043;-63
2023/02/05 06:31:08;;;;;;;2.13;1.60;;;;;;;;;;5114236;28;20590;-63
2023/02/05 06:33:35;;;;;;;1.60;1.03;;;;;;;;;;5113456;28;20378;-63
2023/02/05 06:36:02;;;;;;;2.53;1.53;;;;;;;;;;5108350;28;20610;-63
2023/02/05 06:38:28;;;;;;;1.33;1.10;;;;;;;;;;5107341;28;20298;-63
2023/02/05 06:40:55;;;;;;;2.77;1.67;;;;;;;;;;5108442;28;20281;-64
2023/02/05 06:43:22;;;;;;;1.93;1.23;;;;;;;;;;5108245;28;20248;-63
2023/02/05 06:45:48;;;;;;;3.20;1.13;;;;;;;;;;5099180;28;20255;-63
2023/02/05 06:48:15;;;;;;;4.27;1.83;;;;;;;;;;5099456;28;20272;-63
2023/02/05 06:50:42;;;;;;;2.13;1.53;;;;;;;;;;5093242;28;20271;-63
2023/02/05 06:53:08;;;;;;;2.60;1.70;;;;;;;;;;5093072;28;20751;-63
2023/02/05 06:55:37;;;;;;;2.03;1.40;;;;;;;;;;5092848;28;20248;-64
2023/02/05 06:58:06;;;;;;;0.67;0.67;;;;;;;;;;5087973;28;20296;-63
2023/02/05 07:00:33;;;;;;;1.90;1.37;;;;;;;;;;5069993;28;20292;-63
2023/02/05 07:02:59;;;;;;;1.90;1.37;;;;;;;;;;5087497;28;20268;-63
2023/02/05 07:05:26;;;;;;;1.90;1.37;;;;;;;;;;5087600;28;20377;-63
2023/02/05 07:07:53;;;;;;;3.67;1.57;;;;;;;;;;5091470;28;20265;-63
2023/02/05 07:10:19;;;;;;;14.87;1.10;;;;;;;;;;5092972;28;20253;-62
2023/02/05 07:12:46;;;;;;;3.60;1.77;;;;;;;;;;5092544;28;20446;-63
2023/02/05 07:15:13;;;;;;;0.60;0.50;;;;;;;;;;5092931;28;20260;-63
2023/02/05 07:17:39;;;;;;;2.70;1.80;;;;;;;;;;5092583;28;20665;-63
2023/02/05 07:20:06;;;;;;;1.53;1.10;;;;;;;;;;5087964;28;20273;-64
2023/02/05 07:22:33;;;;;;;4.47;2.23;;;;;;;;;;5087506;28;20783;-63
2023/02/05 07:25:00;;;;;;;1.57;1.20;;;;;;;;;;5087426;28;20259;-63
2023/02/05 07:27:26;;;;;;;1.03;0.83;;;;;;;;;;5087318;28;20259;-64
2023/02/05 07:29:53;;;;;;;5.83;1.43;;;;;;;;;;5072804;28;20310;-61
2023/02/05 07:32:20;;;;;;;0.77;0.77;;;;;;;;;;5092447;28;20275;-60
2023/02/05 07:34:46;;;;;;;29.03;1.87;;;;;;;;;;5092391;28;20264;-60
2023/02/05 07:37:13;;;;;;;1.43;1.27;;;;;;;;;;5092222;28;20256;-60
2023/02/05 07:39:40;;;;;;;1.23;0.90;;;;;;;;;;5092467;28;20265;-60
2023/02/05 07:42:07;;;;;;;1.93;1.20;;;;;;;;;;5088456;28;20268;-61
2023/02/05 07:44:33;;;;;;;2.83;1.57;;;;;;;;;;5087088;28;20272;-61
2023/02/05 07:47:00;;;;;;;0.50;0.50;;;;;;;;;;5086876;28;20313;-60
2023/02/05 07:49:27;;;;;;;4.17;1.50;;;;;;;;;;5086844;28;20264;-60
2023/02/05 07:51:53;;;;;;;1.20;1.00;;;;;;;;;;5090225;28;20352;-60
2023/02/05 07:54:20;;;;;;;4.57;1.83;;;;;;;;;;5092104;28;20245;-60
2023/02/05 07:56:47;;;;;;;2.03;0.90;;;;;;;;;;5105866;28;20905;-60
2023/02/05 07:59:13;;;;;;;1.43;1.03;;;;;;;;;;5094137;28;20280;-60
2023/02/05 08:01:40;;;;;;;0.90;0.70;;;;;;;;;;5112500;28;20256;-61
2023/02/05 08:04:07;;;;;;;3.80;1.33;;;;;;;;;;5108991;28;20255;-60
2023/02/05 08:06:35;;;;;;;1.93;1.27;;;;;;;;;;5106832;28;20271;-60
2023/02/05 08:09:02;;;;;;;2.43;1.20;;;;;;;;;;5106952;28;20607;-60
2023/02/05 08:11:28;;;;;;;1.50;1.13;;;;;;;;;;5107164;28;20447;-60
2023/02/05 08:13:55;;;;;;;2.20;1.30;;;;;;;;;;5110121;28;20252;-60
2023/02/05 08:16:22;;;;;;;2.70;1.93;;;;;;;;;;5112572;28;20343;-60
2023/02/05 08:18:49;;;;;;;3.63;1.87;;;;;;;;;;5111870;28;20810;-60
2023/02/05 08:21:16;;;;;;;2.53;1.23;;;;;;;;;;5112423;28;20259;-60
2023/02/05 08:23:43;;;;;;;3.40;2.27;;;;;;;;;;5112303;28;20252;-60
2023/02/05 08:26:10;;;;;;;1.03;0.90;;;;;;;;;;5108908;28;20267;-60
2023/02/05 08:28:36;;;;;;;4.10;1.47;;;;;;;;;;5107240;28;20263;-60
2023/02/05 08:31:08;;;;;;;3.23;1.50;;;;;;;;;;5106574;28;20304;-60
2023/02/05 08:33:35;;;;;;;1.83;1.20;;;;;;;;;;5107136;28;20259;-60
2023/02/05 08:36:02;;;;;;;2.60;1.83;;;;;;;;;;5109641;28;20277;-62
2023/02/05 08:38:28;;;;;;;1.80;1.00;;;;;;;;;;5111881;28;20280;-60
2023/02/05 08:40:56;;;;;;;3.97;1.33;;;;;;;;;;5111767;28;20344;-59
2023/02/05 08:43:23;;;;;;;1.27;0.77;;;;;;;;;;5109829;28;20771;-60
2023/02/05 08:45:50;;;;;;;1.20;1.07;;;;;;;;;;5109935;28;20264;-60
2023/02/05 08:48:16;;;;;;;0.93;0.67;;;;;;;;;;5109182;28;20602;-60
2023/02/05 08:50:46;;;;;;;3.07;1.23;;;;;;;;;;5106991;28;20252;-60
2023/02/05 08:53:13;;;;;;;1.57;1.13;;;;;;;;;;5101999;28;20268;-60
2023/02/05 08:55:40;;;;;;;1.63;1.50;;;;;;;;;;5106514;28;20301;-59
2023/02/05 08:58:06;;;;;;;1.77;1.40;;;;;;;;;;5109164;28;20276;-60
2023/02/05 09:00:36;;;;;;;3.33;1.83;;;;;;;;;;5111975;28;20260;-60
2023/02/05 09:03:03;;;;;;;2.90;2.10;;;;;;;;;;5115383;28;20291;-60
2023/02/05 09:05:30;;;;;;;3.20;2.10;;;;;;;;;;5115497;28;20325;-60
2023/02/05 09:07:58;;;;;;;3.53;1.93;;;;;;;;;;5115428;28;20252;-61
2023/02/05 09:10:24;;;;;;;1.27;1.13;;;;;;;;;;5112153;28;20287;-60
2023/02/05 09:12:51;;;;;;;1.20;0.90;;;;;;;;;;5104768;28;20265;-60
2023/02/05 09:15:18;;;;;;;1.90;0.97;;;;;;;;;;5104384;28;20886;-62
2023/02/05 09:17:45;;;;;;;14.00;2.43;;;;;;;;;;5110049;28;20284;-62
2023/02/05 09:20:12;;;;;;;3.07;1.23;;;;;;;;;;5112070;28;20264;-62
2023/02/05 09:22:38;;;;;;;2.03;1.40;;;;;;;;;;5112852;28;20252;-63
2023/02/05 09:25:06;;;;;;;1.77;1.03;;;;;;;;;;5095079;28;20260;-62
2023/02/05 09:27:33;;;;;;;1.07;0.80;;;;;;;;;;5094675;28;20256;-62
2023/02/05 09:29:59;;;;;;;0.77;0.70;;;;;;;;;;5094562;28;20257;-62
2023/02/05 09:32:26;;;;;;;1.00;0.80;;;;;;;;;;5092017;28;20303;-63
2023/02/05 09:34:53;;;;;;;0.93;0.63;;;;;;;;;;5089301;28;20273;-64
2023/02/05 09:37:19;;;;;;;2.20;0.87;;;;;;;;;;5089308;28;20272;-62
2023/02/05 09:39:46;;;;;;;2.10;1.20;;;;;;;;;;5089361;28;20319;-63
2023/02/05 09:42:19;;;;;;;1.47;0.67;;;;;;;;;;5091196;28;20249;-62
2023/02/05 09:45:06;;;;;;;1.07;0.90;;;;;;;;;;5094586;28;20340;-62
2023/02/05 09:47:37;;;;;;;2.47;1.20;;;;;;;;;;5094094;28;20282;-62
2023/02/05 09:50:05;;;;;;;0.70;0.50;;;;;;;;;;5094380;28;20253;-63
2023/02/05 09:52:39;;;;;;;0.40;0.33;;;;;;;;;;5094363;28;20256;-63
2023/02/05 09:55:11;;;;;;;0.60;0.47;;;;;;;;;;5091012;28;20257;-62
2023/02/05 09:57:40;;;;;;;1.70;1.10;;;;;;;;;;5088836;28;20032;-63
2023/02/05 10:00:18;;;;;;;1.40;1.10;;;;;;;;;;5088964;28;20755;-62
2023/02/05 10:02:50;;;;;;;1.43;1.10;;;;;;;;;;5089059;28;20257;-62
2023/02/05 10:05:18;;;;;;;1.00;0.90;;;;;;;;;;5092373;28;20747;-62
2023/02/05 10:07:52;;;;;;;0.50;0.50;;;;;;;;;;5094200;28;20253;-62
2023/02/05 10:10:21;;;;;;;1.57;1.17;;;;;;;;;;5093974;28;20739;-62
2023/02/05 10:12:53;;;;;;;1.70;1.13;;;;;;;;;;5093686;28;20751;-62
2023/02/05 10:15:27;;;;;;;0.97;0.73;;;;;;;;;;5093574;28;20739;-64
2023/02/05 10:18:12;;;;;;;1.03;0.77;;;;;;;;;;5088925;28;20292;-63
2023/02/05 10:20:38;;;;;;;1.27;1.17;;;;;;;;;;5088509;28;20301;-63
2023/02/05 10:23:16;;;;;;;1.40;0.90;;;;;;;;;;5088451;28;20031;-62
2023/02/05 10:25:53;;;;;;;0.97;0.87;;;;;;;;;;5088433;28;20328;-62
2023/02/05 10:28:29;;;;;;;0.93;0.67;;;;;;;;;;5093621;28;20271;-62
2023/02/05 10:31:05;;;;;;;3.03;0.97;;;;;;;;;;5093609;28;20249;-62
2023/02/05 10:33:41;;;;;;;1.57;1.10;;;;;;;;;;5093128;28;20352;-62
2023/02/05 10:36:09;;;;;;;1.03;0.87;;;;;;;;;;5093324;28;20623;-63
2023/02/05 10:38:44;;;;;;;1.23;0.80;;;;;;;;;;5091555;28;20782;-63
2023/02/05 10:41:16;;;;;;;1.00;0.90;;;;;;;;;;5088140;28;20265;-62
2023/02/05 10:43:52;;;;;;;2.47;1.33;;;;;;;;;;5087577;28;20035;-62
2023/02/05 10:46:19;;;;;;;0.73;0.60;;;;;;;;;;5069750;28;20750;-62
2023/02/05 10:48:49;;;;;;;1.17;1.00;;;;;;;;;;5089908;28;20288;-62
2023/02/05 10:51:17;;;;;;;1.03;0.77;;;;;;;;;;5101720;28;20260;-62
2023/02/05 10:53:44;;;;;;;0.60;0.60;;;;;;;;;;5095834;28;20264;-63
2023/02/05 10:56:18;;;;;;;0.47;0.43;;;;;;;;;;5092718;28;20315;-62
2023/02/05 10:58:49;;;;;;;0.93;0.70;;;;;;;;;;5092838;28;20296;-63
2023/02/05 11:01:23;;;;;;;1.27;0.63;;;;;;;;;;5090265;28;20267;-63
2023/02/05 11:03:50;;;;;;;1.97;1.20;;;;;;;;;;5087690;28;20263;-61
2023/02/05 11:06:16;;;;;;;0.50;0.47;;;;;;;;;;5087635;28;20678;-61
2023/02/05 11:08:44;;;;;;;1.73;0.97;;;;;;;;;;5087355;28;20343;-61
2023/02/05 11:11:30;;;;;;;0.37;0.30;;;;;;;;;;5089962;28;20717;-61
2023/02/05 11:13:57;;;;;;;0.63;0.57;;;;;;;;;;5092877;28;20290;-61
2023/02/05 11:16:28;;;;;;;2.63;1.63;;;;;;;;;;5092861;28;20332;-61
2023/02/05 11:19:00;;;;;;;12.93;0.83;;;;;;;;;;5111792;28;20341;-61
2023/02/05 11:21:46;;;;;;;1.33;1.00;;;;;;;;;;5113101;28;20610;-61
2023/02/05 11:24:23;;;;;;;0.50;0.50;;;;;;;;;;5093998;28;20270;-62
2023/02/05 11:26:50;;;;;;;0.87;0.80;;;;;;;;;;5068972;28;20639;-61
2023/02/05 11:29:21;;;;;;;1.00;0.70;;;;;;;;;;5087141;28;20347;-62
2023/02/05 11:31:47;;;;;;;0.30;0.30;;;;;;;;;;5087348;28;20267;-61
2023/02/05 11:34:19;;;;;;;0.50;0.50;;;;;;;;;;5091628;28;20382;-61
2023/02/05 11:36:51;;;;;;;0.50;0.50;;;;;;;;;;5074156;28;20275;-61
2023/02/05 11:39:34;;;;;;;0.77;0.60;;;;;;;;;;5092256;28;20755;-61
2023/02/05 11:42:21;;;;;;;1.97;1.37;;;;;;;;;;5092530;28;20293;-60
2023/02/05 11:44:50;;;;;;;1.27;0.90;;;;;;;;;;5090910;28;20265;-61
2023/02/05 11:47:30;;;;;;;0.67;0.57;;;;;;;;;;5086477;28;20287;-61
2023/02/05 11:49:58;;;;;;;0.90;0.83;;;;;;;;;;5087246;28;20331;-60
2023/02/05 11:52:35;;;;;;;2.03;1.00;;;;;;;;;;5087070;28;20249;-61
2023/02/05 11:55:02;;;;;;;4.97;1.70;;;;;;;;;;5088588;28;20267;-61
2023/02/05 11:57:32;;;;;;;2.57;1.57;;;;;;;;;;5091645;28;20398;-61
2023/02/05 12:00:00;;;;;;;1.40;1.17;;;;;;;;;;5092177;28;20266;-61
2023/02/05 12:02:29;;;;;;;2.20;1.40;;;;;;;;;;5091998;28;20256;-61
2023/02/05 12:05:16;;;;;;;3.73;1.27;;;;;;;;;;5092248;28;20248;-61
2023/02/05 12:07:43;;;;;;;1.60;0.93;;;;;;;;;;5071937;28;20615;-61
2023/02/05 12:10:17;;;;;;;1.77;1.30;;;;;;;;;;5086805;28;20686;-61
2023/02/05 12:12:51;;;;;;;1.43;1.33;;;;;;;;;;5086826;28;20700;-61
2023/02/05 12:15:29;;;;;;;2.05;1.55;;;;;;;;;;5086905;28;20259;-61
2023/02/05 12:17:59;;;;;;;1.73;1.23;;;;;;;;;;5089422;28;20032;-61
2023/02/05 12:20:25;;;;;;;3.37;2.30;;;;;;;;;;5091993;28;20926;-61
2023/02/05 12:23:01;;;;;;;1.50;1.37;;;;;;;;;;5092046;28;20775;-61
2023/02/05 12:25:47;;;;;;;3.87;1.90;;;;;;;;;;5092097;28;20248;-61
2023/02/05 12:28:29;;;;;;;2.97;1.02;;;;;;;;;;5092082;28;20325;-60
2023/02/05 12:31:02;;;;;;;2.83;2.07;;;;;;;;;;5086847;28;20028;-61
2023/02/05 12:33:37;;;;;;;2.47;1.27;;;;;;;;;;5086725;28;20777;-61
2023/02/05 12:36:04;;;;;;;1.10;1.00;;;;;;;;;;5086795;28;20265;-61
2023/02/05 12:38:49;;;;;;;1.20;0.97;;;;;;;;;;5090320;28;20330;-61
2023/02/05 12:41:21;;;;;;;1.38;1.10;;;;;;;;;;5095870;28;20674;-61
2023/02/05 12:43:49;;;;;;;6.50;1.83;;;;;;;;;;5095679;28;20095;-61
2023/02/05 12:46:28;;;;;;;1.80;1.33;;;;;;;;;;5095279;28;20285;-62
2023/02/05 12:49:16;;;;;;;2.07;1.33;;;;;;;;;;5093491;28;20796;-61
2023/02/05 12:52:01;;;;;;;1.30;1.00;;;;;;;;;;5093178;28;20310;-61
2023/02/05 12:54:45;;;;;;;4.07;2.00;;;;;;;;;;5090145;28;20263;-60
2023/02/05 12:57:15;;;;;;;1.47;1.30;;;;;;;;;;5089866;28;20505;-61
2023/02/05 12:59:41;;;;;;;3.77;2.27;;;;;;;;;;5090126;28;20607;-61
2023/02/05 13:02:16;;;;;;;3.53;2.43;;;;;;;;;;5092692;28;20255;-61
2023/02/05 13:04:45;;;;;;;2.25;1.67;;;;;;;;;;5095380;28;20248;-61
2023/02/05 13:07:25;;;;;;;3.17;2.37;;;;;;;;;;5095262;28;20024;-61
2023/02/05 13:09:57;;;;;;;2.33;1.87;;;;;;;;;;5077121;28;20691;-61
2023/02/05 13:12:26;;;;;;;3.63;2.33;;;;;;;;;;5095016;28;20263;-61
2023/02/05 13:14:59;;;;;;;3.93;2.60;;;;;;;;;;5090500;28;20738;-60
2023/02/05 13:17:29;;;;;;;3.20;2.20;;;;;;;;;;5089638;28;20263;-61
2023/02/05 13:19:56;;;;;;;1.30;0.97;;;;;;;;;;5089694;28;20284;-61
2023/02/05 13:30:51;;;;;;;7.60;3.80;;;;;;;;;;5098772;28;20989;-61
2023/02/05 13:33:18;;;;;;;7.50;3.53;;;;;;;;;;5115118;28;20248;-61
2023/02/05 13:35:56;;;;;;;5.60;4.27;;;;;;;;;;5113247;28;20736;-61
2023/02/05 13:38:34;;;;;;;6.80;2.67;;;;;;;;;;5109141;28;20292;-61
2023/02/05 13:41:04;;;;;;;3.27;2.57;;;;;;;;;;5109649;28;20260;-61
2023/02/05 13:43:42;;;;;;;6.83;2.43;;;;;;;;;;5109681;28;20252;-61
2023/02/05 13:46:23;;;;;;;5.23;3.03;;;;;;;;;;5112117;28;20248;-60
2023/02/05 13:48:50;;;;;;;3.20;1.80;;;;;;;;;;5114104;28;20256;-61
2023/02/05 13:51:26;;;;;;;2.20;1.37;;;;;;;;;;5114752;28;20248;-61
2023/02/05 13:54:10;;;;;;;8.03;2.20;;;;;;;;;;5114646;28;20343;-62
2023/02/05 13:56:41;;;;;;;12.63;2.17;;;;;;;;;;5104849;28;20264;-61
2023/02/05 13:59:14;;;;;;;36.77;2.20;;;;;;;;;;5092158;28;20767;-61
2023/02/05 14:01:59;;;;;;;7.20;1.10;;;;;;;;;;5088753;28;20286;-62
2023/02/05 14:04:26;;;;;;;14.30;3.88;;;;;;;;;;5088704;28;20325;-62
2023/02/05 14:06:58;;;;;;;29.83;3.20;;;;;;;;;;5088559;28;20030;-62
2023/02/05 14:09:24;;;;;;;6.77;2.30;;;;;;;;;;5093834;28;20363;-61
2023/02/05 14:11:55;;;;;;;5.17;1.63;;;;;;;;;;5094036;28;20276;-61
2023/02/05 14:14:25;;;;;;;2.27;1.23;;;;;;;;;;5097959;28;20363;-61
2023/02/05 14:16:53;;;;;;;2.27;1.10;;;;;;;;;;5114117;28;20252;-62
2023/02/05 14:19:25;;;;;;;1.33;1.10;;;;;;;;;;5113659;28;20290;-62
2023/02/05 14:21:59;;;;;;;1.97;1.40;;;;;;;;;;5108189;28;21764;-61
2023/02/05 14:24:27;;;;;;;6.43;1.93;;;;;;;;;;5108669;28;20270;-62
2023/02/05 14:26:56;;;;;;;2.30;1.40;;;;;;;;;;5108815;28;20023;-62
2023/02/05 14:29:41;;;;;;;5.70;2.17;;;;;;;;;;5108756;28;20026;-61
2023/02/05 14:32:33;;;;;;;3.67;2.15;;;;;;;;;;5113767;28;20024;-62
2023/02/05 14:35:18;;;;;;;2.03;1.20;;;;;;;;;;5113776;28;20409;-62
2023/02/05 14:37:48;;;;;;;1.95;1.35;;;;;;;;;;5113899;28;20034;-62
2023/02/05 14:40:30;;;;;;;2.13;1.43;;;;;;;;;;5113770;28;20019;-62
2023/02/05 14:43:05;;;;;;;4.13;1.53;;;;;;;;;;5109726;28;20020;-62
2023/02/05 14:45:31;;;;;;;2.65;1.30;;;;;;;;;;5108081;28;20020;-62
2023/02/05 14:47:58;;;;;;;1.70;1.13;;;;;;;;;;5108329;28;20034;-62
2023/02/05 14:50:26;;;;;;;3.17;1.20;;;;;;;;;;5090445;28;20032;-62
2023/02/05 14:52:56;;;;;;;3.73;1.90;;;;;;;;;;5111707;28;20443;-62
2023/02/05 14:55:30;;;;;;;2.50;1.30;;;;;;;;;;5113193;28;20024;-62
2023/02/05 14:58:03;;;;;;;2.55;1.45;;;;;;;;;;5098274;28;20040;-62
2023/02/05 15:00:29;;;;;;;1.33;1.07;;;;;;;;;;5112696;28;20068;-62
2023/02/05 15:03:02;;;;;;;1.63;1.10;;;;;;;;;;5113473;28;20035;-63
2023/02/05 15:05:35;;;;;;;2.43;1.17;;;;;;;;;;5108690;28;20046;-63
2023/02/05 15:08:14;;;;;;;1.03;0.80;;;;;;;;;;5104049;28;20478;-62
2023/02/05 15:10:50;;;;;;;3.37;1.70;;;;;;;;;;5087498;28;20069;-62